SLCBSLLP

Guest
Details From SLCB - JORGE WILSTERMAN
To SLLP - La Paz
Flight Number -
Tags generated
Created
Modified
Stats Distance 129 nm / 238 km
Max Altitude 10,300 ft / 3,139 m
Waypoints 3
Social Downloads 2
Likes 0
Share VATSIM

Download

Looking for another format? Having issues loading an existing format? Contact us
Advertisement - Login to hide

Notes

Basic altitude profile: - Ascent Rate: 2000ft/min - Ascent Speed: 250kts - Cruise Altitude: 28000ft - Cruise Speed: 335kts - Descent Rate: 1700ft/min - Descent Speed: 250kts Options: - Use NATs: yes - Use PACOTS: yes - Use low airways: no - Use high airways: yes

Route

SLCB BELEN SLLP

ID Type Via Altitude (ft/m) Position (lat/lon) Dist (leg/tot) Name
O SLCB APT - 0 / 0 -17.42039 / -66.17717 - / 0 nm JORGE WILSTERMAN
BELEN FIX - 10,300 / 3,139 -16.99101 / -67.41714 75 / 75 nm
O SLLP APT - 0 / 0 -16.50936 / -68.19055 53 / 128 nm La Paz

Altitude Profile

Advertisement - Login to hide

SLCB

Details ICAO SLCB (CBB)
Name Jorge Wilsterman
Region Bolivia
Timezone America/La_Paz (UTC-4.0)
Stats Elevation 8,359 ft / 2,548 m (AMSL)
Location -17.420400° -66.177200°
Runways 2
Magnetic Variation 9.592° W

METAR

SLCB 160200Z 12006KT 9999 FEW027 SCT070 BKN200 17/04 Q1028

Decode

TAF

Not found

Departure Runways

ID Width Length Bearing (true/mag) Surface Threshold Overrun Markings Lighting
04 148 ft / 45 m 8,718 ft / 2,657 m 37.26° / 46.85° ASPHALT 0 ft / 0 m 0 ft / 0 m PREC-APP EDGE THRESHOLD
14 148 ft / 45 m 12,485 ft / 3,805 m 132.10° / 141.70° ASPHALT 335 ft / 102 m 200 ft / 61 m PREC-APP EDGE THRESHOLD
22 148 ft / 45 m 8,718 ft / 2,657 m 217.26° / 226.85° ASPHALT 732 ft / 223 m 0 ft / 0 m PREC-APP EDGE THRESHOLD
32 148 ft / 45 m 12,485 ft / 3,805 m 312.10° / 321.69° ASPHALT 984 ft / 300 m 200 ft / 61 m PREC-APP EDGE THRESHOLD ALSF-I

SLLP

Details ICAO SLLP (LPB)
Name El Alto Int'l
Region Bolivia
Timezone America/La_Paz (UTC-4.0)
Stats Elevation 13,312 ft / 4,058 m (AMSL)
Location -16.513300° -68.192300°
Runways 1
Magnetic Variation 8.113° W

METAR

SLLP 160200Z 06008KT 9999 FEW015 FEW017CB BKN200 08/03 Q1038

Decode

TAF

Not found

Destination Runways

ID Width Length Bearing (true/mag) Surface Threshold Overrun Markings Lighting
10 151 ft / 46 m 13,136 ft / 4,004 m 91.90° / 100.01° CONCRETE 0 ft / 0 m 118 ft / 36 m PREC-APP EDGE THRESHOLD ALSF-I REIL-OMNI
28 151 ft / 46 m 13,136 ft / 4,004 m 271.89° / 280.00° CONCRETE 0 ft / 0 m 102 ft / 31 m PREC-APP EDGE THRESHOLD ALSF-I REIL-OMNI

Approach Navaids

Runway Type Ident Frequency Range Bearing (true/mag) Slope Elevation
10 MM MM - - 91.89° / 100.01 ° - 13,313 ft / 4,058 m (AMSL)
10 LOC-ILS ILPA 110.30 MHz 18 nm / 33 km 91.89° / 100.00 ° - 13,313 ft / 4,058 m (AMSL)
10 GS ILPA 110.30 MHz 10 nm / 19 km 92.79° / 100.90 ° 2.40° 13,313 ft / 4,058 m (AMSL)

Popular Alternatives